KDTW

Detroit/Metropolitan Wayne County

Airport
ICAO code
KDTW
Summary
ICAO Region
NAM
ICAO Territory
Location

Romulus, Detroit, Michigan,

Elevation
645 ft
Coordinates
42° 12' 45" N , 83° 21' 12" W
KCC
Metar
Observation
KDTW 291753Z 16012G19KT 6SM HZ OVC040 09/04 A2994 RMK AO2 SLP142 T00890044 10089 20050 58027
Station
Detroit, Detroit Metropolitan Wayne County Airport
Date/Time
2022-11-29 17:53:00
Wind direction
160°
Wind speed
12 kts
Lowest cloud amount
overcast
Temperature
8.9°C
Dew point
4.4°C
Humidity
73%
Weather condition
haze

Description

Detroit Metropolitan Wayne County Airport, usually called Detroit Metro Airport, Metro Airport locally, or simply DTW, is a major international airport in Romulus, Michigan, a suburb of Detroit.

Climatology

Humid continental climate (Köppen climate classification Dfa) - characterized by four seasons: cold, windy, snowy winters, mild springs, hot, humid summers, and crisp and relatively short autumns. Precipitation reaches its lowest in January and February and peaks in summer and latter half of spring.

Airport map

Aerial View

SKYbrary Partners:

Safety knowledge contributed by: